sensor_id;sensor_type;location;lat;lon;timestamp;P1;durP1;ratioP1;P2;durP2;ratioP2
60464;SDS011;46314;52.392;9.758;2023-08-08T00:01:11;3.85;;;2.25;;
60464;SDS011;46314;52.392;9.758;2023-08-08T00:03:37;4.07;;;2.33;;
60464;SDS011;46314;52.392;9.758;2023-08-08T00:06:04;4.25;;;2.40;;
60464;SDS011;46314;52.392;9.758;2023-08-08T00:08:32;3.47;;;2.05;;
60464;SDS011;46314;52.392;9.758;2023-08-08T00:10:58;5.15;;;2.20;;
60464;SDS011;46314;52.392;9.758;2023-08-08T00:13:25;5.78;;;2.65;;
60464;SDS011;46314;52.392;9.758;2023-08-08T00:15:51;6.20;;;2.42;;
60464;SDS011;46314;52.392;9.758;2023-08-08T00:18:18;4.10;;;2.30;;
60464;SDS011;46314;52.392;9.758;2023-08-08T00:20:44;5.20;;;2.83;;
60464;SDS011;46314;52.392;9.758;2023-08-08T00:23:11;4.30;;;2.38;;
60464;SDS011;46314;52.392;9.758;2023-08-08T00:25:39;4.00;;;2.40;;
60464;SDS011;46314;52.392;9.758;2023-08-08T00:28:05;5.22;;;2.90;;
60464;SDS011;46314;52.392;9.758;2023-08-08T00:30:32;5.25;;;2.47;;
60464;SDS011;46314;52.392;9.758;2023-08-08T00:32:59;4.60;;;2.75;;
60464;SDS011;46314;52.392;9.758;2023-08-08T00:35:25;4.85;;;2.22;;
60464;SDS011;46314;52.392;9.758;2023-08-08T00:37:52;4.00;;;2.38;;
60464;SDS011;46314;52.392;9.758;2023-08-08T00:40:18;4.53;;;2.58;;
60464;SDS011;46314;52.392;9.758;2023-08-08T00:42:46;5.03;;;2.38;;
60464;SDS011;46314;52.392;9.758;2023-08-08T00:45:13;8.15;;;2.80;;
60464;SDS011;46314;52.392;9.758;2023-08-08T00:47:39;4.80;;;2.40;;
60464;SDS011;46314;52.392;9.758;2023-08-08T00:50:06;5.30;;;2.90;;
60464;SDS011;46314;52.392;9.758;2023-08-08T00:52:34;4.18;;;2.22;;
60464;SDS011;46314;52.392;9.758;2023-08-08T00:55:02;3.20;;;2.30;;
60464;SDS011;46314;52.392;9.758;2023-08-08T00:57:29;7.13;;;3.33;;
60464;SDS011;46314;52.392;9.758;2023-08-08T00:59:57;5.82;;;3.25;;
60464;SDS011;46314;52.392;9.758;2023-08-08T01:02:23;3.97;;;2.13;;
60464;SDS011;46314;52.392;9.758;2023-08-08T01:04:50;4.60;;;2.75;;
60464;SDS011;46314;52.392;9.758;2023-08-08T01:07:19;5.55;;;2.47;;
60464;SDS011;46314;52.392;9.758;2023-08-08T01:09:52;3.38;;;2.20;;
60464;SDS011;46314;52.392;9.758;2023-08-08T01:12:23;3.70;;;2.25;;
60464;SDS011;46314;52.392;9.758;2023-08-08T01:14:51;6.07;;;2.50;;
60464;SDS011;46314;52.392;9.758;2023-08-08T01:17:20;7.82;;;2.78;;
60464;SDS011;46314;52.392;9.758;2023-08-08T01:19:48;4.03;;;2.15;;
60464;SDS011;46314;52.392;9.758;2023-08-08T01:22:16;3.90;;;2.15;;
60464;SDS011;46314;52.392;9.758;2023-08-08T01:24:51;3.35;;;2.30;;
60464;SDS011;46314;52.392;9.758;2023-08-08T01:27:20;4.82;;;2.50;;
60464;SDS011;46314;52.392;9.758;2023-08-08T01:29:47;3.58;;;2.15;;
60464;SDS011;46314;52.392;9.758;2023-08-08T01:32:14;2.72;;;1.75;;
60464;SDS011;46314;52.392;9.758;2023-08-08T01:34:41;3.70;;;2.30;;
60464;SDS011;46314;52.392;9.758;2023-08-08T01:37:09;3.50;;;2.00;;
60464;SDS011;46314;52.392;9.758;2023-08-08T01:39:40;3.15;;;2.25;;
60464;SDS011;46314;52.392;9.758;2023-08-08T01:42:09;9.00;;;2.65;;
60464;SDS011;46314;52.392;9.758;2023-08-08T01:44:38;3.47;;;2.10;;
60464;SDS011;46314;52.392;9.758;2023-08-08T01:47:07;3.80;;;2.13;;
60464;SDS011;46314;52.392;9.758;2023-08-08T01:49:33;4.55;;;2.30;;
60464;SDS011;46314;52.392;9.758;2023-08-08T01:52:00;4.45;;;2.13;;
60464;SDS011;46314;52.392;9.758;2023-08-08T01:54:27;4.22;;;2.22;;
60464;SDS011;46314;52.392;9.758;2023-08-08T01:56:54;3.75;;;2.53;;
60464;SDS011;46314;52.392;9.758;2023-08-08T01:59:22;3.45;;;2.40;;
60464;SDS011;46314;52.392;9.758;2023-08-08T02:01:48;5.30;;;2.33;;
60464;SDS011;46314;52.392;9.758;2023-08-08T02:04:15;4.93;;;2.47;;
60464;SDS011;46314;52.392;9.758;2023-08-08T02:06:41;3.50;;;2.30;;
60464;SDS011;46314;52.392;9.758;2023-08-08T02:09:08;5.32;;;2.50;;
60464;SDS011;46314;52.392;9.758;2023-08-08T02:11:34;3.38;;;2.10;;
60464;SDS011;46314;52.392;9.758;2023-08-08T02:14:01;4.75;;;2.17;;
60464;SDS011;46314;52.392;9.758;2023-08-08T02:16:28;4.85;;;2.78;;
60464;SDS011;46314;52.392;9.758;2023-08-08T02:18:55;6.65;;;2.42;;
60464;SDS011;46314;52.392;9.758;2023-08-08T02:21:21;6.35;;;2.58;;
60464;SDS011;46314;52.392;9.758;2023-08-08T02:23:48;3.63;;;2.08;;
60464;SDS011;46314;52.392;9.758;2023-08-08T02:26:14;6.00;;;2.55;;
60464;SDS011;46314;52.392;9.758;2023-08-08T02:28:41;3.08;;;1.92;;
60464;SDS011;46314;52.392;9.758;2023-08-08T02:31:08;3.75;;;2.70;;
60464;SDS011;46314;52.392;9.758;2023-08-08T02:33:36;5.07;;;2.38;;
60464;SDS011;46314;52.392;9.758;2023-08-08T02:36:03;3.60;;;2.35;;
60464;SDS011;46314;52.392;9.758;2023-08-08T02:38:30;3.83;;;2.53;;
60464;SDS011;46314;52.392;9.758;2023-08-08T02:40:56;3.28;;;2.40;;
60464;SDS011;46314;52.392;9.758;2023-08-08T02:43:22;7.50;;;2.88;;
60464;SDS011;46314;52.392;9.758;2023-08-08T02:45:49;4.13;;;2.70;;
60464;SDS011;46314;52.392;9.758;2023-08-08T02:48:15;4.03;;;2.60;;
60464;SDS011;46314;52.392;9.758;2023-08-08T02:50:43;3.95;;;2.10;;
60464;SDS011;46314;52.392;9.758;2023-08-08T02:53:10;3.88;;;2.47;;
60464;SDS011;46314;52.392;9.758;2023-08-08T02:55:36;4.82;;;2.92;;
60464;SDS011;46314;52.392;9.758;2023-08-08T02:58:03;7.43;;;2.75;;
60464;SDS011;46314;52.392;9.758;2023-08-08T03:00:30;4.10;;;2.40;;
60464;SDS011;46314;52.392;9.758;2023-08-08T03:02:56;6.80;;;3.25;;
60464;SDS011;46314;52.392;9.758;2023-08-08T03:05:23;8.75;;;3.25;;
60464;SDS011;46314;52.392;9.758;2023-08-08T03:07:51;3.85;;;2.72;;
60464;SDS011;46314;52.392;9.758;2023-08-08T03:10:17;7.03;;;2.95;;
60464;SDS011;46314;52.392;9.758;2023-08-08T03:12:43;4.30;;;2.25;;
60464;SDS011;46314;52.392;9.758;2023-08-08T03:15:10;4.10;;;2.33;;
60464;SDS011;46314;52.392;9.758;2023-08-08T03:17:38;3.75;;;2.30;;
60464;SDS011;46314;52.392;9.758;2023-08-08T03:20:05;6.45;;;3.53;;
60464;SDS011;46314;52.392;9.758;2023-08-08T03:22:32;6.50;;;3.10;;
60464;SDS011;46314;52.392;9.758;2023-08-08T03:25:00;4.22;;;3.00;;
60464;SDS011;46314;52.392;9.758;2023-08-08T03:27:27;6.13;;;3.38;;
60464;SDS011;46314;52.392;9.758;2023-08-08T03:29:53;6.20;;;3.30;;
60464;SDS011;46314;52.392;9.758;2023-08-08T03:32:20;5.63;;;2.63;;
60464;SDS011;46314;52.392;9.758;2023-08-08T03:34:46;6.07;;;4.05;;
60464;SDS011;46314;52.392;9.758;2023-08-08T03:37:13;4.32;;;3.17;;
60464;SDS011;46314;52.392;9.758;2023-08-08T03:39:40;8.23;;;3.47;;
60464;SDS011;46314;52.392;9.758;2023-08-08T03:42:08;4.88;;;2.72;;
60464;SDS011;46314;52.392;9.758;2023-08-08T03:44:34;5.32;;;3.45;;
60464;SDS011;46314;52.392;9.758;2023-08-08T03:47:01;4.32;;;2.97;;
60464;SDS011;46314;52.392;9.758;2023-08-08T03:49:44;4.45;;;3.40;;
60464;SDS011;46314;52.392;9.758;2023-08-08T03:52:11;8.23;;;4.15;;
60464;SDS011;46314;52.392;9.758;2023-08-08T03:54:38;6.65;;;4.10;;
60464;SDS011;46314;52.392;9.758;2023-08-08T03:57:04;5.85;;;3.25;;
60464;SDS011;46314;52.392;9.758;2023-08-08T03:59:32;7.35;;;3.80;;
60464;SDS011;46314;52.392;9.758;2023-08-08T04:01:59;5.75;;;3.63;;
60464;SDS011;46314;52.392;9.758;2023-08-08T04:04:26;4.22;;;2.95;;
60464;SDS011;46314;52.392;9.758;2023-08-08T04:06:52;4.25;;;3.40;;
60464;SDS011;46314;52.392;9.758;2023-08-08T04:09:19;5.07;;;3.30;;
60464;SDS011;46314;52.392;9.758;2023-08-08T04:11:45;4.90;;;3.03;;
60464;SDS011;46314;52.392;9.758;2023-08-08T04:14:12;4.38;;;2.97;;
60464;SDS011;46314;52.392;9.758;2023-08-08T04:16:40;5.00;;;3.17;;
60464;SDS011;46314;52.392;9.758;2023-08-08T04:19:06;5.05;;;3.20;;
60464;SDS011;46314;52.392;9.758;2023-08-08T04:21:33;4.78;;;2.90;;
60464;SDS011;46314;52.392;9.758;2023-08-08T04:23:59;6.00;;;3.03;;
60464;SDS011;46314;52.392;9.758;2023-08-08T04:26:26;4.95;;;3.60;;
60464;SDS011;46314;52.392;9.758;2023-08-08T04:28:52;3.95;;;2.70;;
60464;SDS011;46314;52.392;9.758;2023-08-08T04:31:19;6.00;;;3.28;;
60464;SDS011;46314;52.392;9.758;2023-08-08T04:33:47;6.43;;;3.38;;
60464;SDS011;46314;52.392;9.758;2023-08-08T04:36:13;5.10;;;3.17;;
60464;SDS011;46314;52.392;9.758;2023-08-08T04:38:40;5.63;;;3.03;;
60464;SDS011;46314;52.392;9.758;2023-08-08T04:41:06;5.18;;;2.97;;
60464;SDS011;46314;52.392;9.758;2023-08-08T04:43:33;7.60;;;3.60;;
60464;SDS011;46314;52.392;9.758;2023-08-08T04:45:59;3.15;;;2.58;;
60464;SDS011;46314;52.392;9.758;2023-08-08T04:48:26;4.90;;;2.97;;
60464;SDS011;46314;52.392;9.758;2023-08-08T04:50:54;3.83;;;2.80;;
60464;SDS011;46314;52.392;9.758;2023-08-08T04:53:20;5.35;;;2.90;;
60464;SDS011;46314;52.392;9.758;2023-08-08T04:55:47;6.10;;;3.38;;
60464;SDS011;46314;52.392;9.758;2023-08-08T04:58:13;6.32;;;3.30;;
60464;SDS011;46314;52.392;9.758;2023-08-08T05:00:40;6.43;;;3.70;;
60464;SDS011;46314;52.392;9.758;2023-08-08T05:03:06;3.63;;;2.72;;
60464;SDS011;46314;52.392;9.758;2023-08-08T05:05:33;5.07;;;2.85;;
60464;SDS011;46314;52.392;9.758;2023-08-08T05:08:01;5.53;;;3.08;;
60464;SDS011;46314;52.392;9.758;2023-08-08T05:10:27;4.88;;;3.00;;
60464;SDS011;46314;52.392;9.758;2023-08-08T05:12:54;5.95;;;3.03;;
60464;SDS011;46314;52.392;9.758;2023-08-08T05:15:20;5.53;;;3.25;;
60464;SDS011;46314;52.392;9.758;2023-08-08T05:17:49;6.18;;;3.25;;
60464;SDS011;46314;52.392;9.758;2023-08-08T05:20:15;4.35;;;2.72;;
60464;SDS011;46314;52.392;9.758;2023-08-08T05:22:42;9.30;;;3.45;;
60464;SDS011;46314;52.392;9.758;2023-08-08T05:25:10;5.60;;;2.80;;
60464;SDS011;46314;52.392;9.758;2023-08-08T05:27:36;5.32;;;3.30;;
60464;SDS011;46314;52.392;9.758;2023-08-08T05:30:03;5.20;;;2.75;;
60464;SDS011;46314;52.392;9.758;2023-08-08T05:32:31;5.43;;;3.20;;
60464;SDS011;46314;52.392;9.758;2023-08-08T05:34:57;7.97;;;4.18;;
60464;SDS011;46314;52.392;9.758;2023-08-08T05:37:24;4.75;;;3.30;;
60464;SDS011;46314;52.392;9.758;2023-08-08T05:39:50;7.93;;;3.40;;
60464;SDS011;46314;52.392;9.758;2023-08-08T05:42:18;7.38;;;3.85;;
60464;SDS011;46314;52.392;9.758;2023-08-08T05:44:45;8.75;;;4.20;;
60464;SDS011;46314;52.392;9.758;2023-08-08T05:47:11;10.10;;;3.40;;
60464;SDS011;46314;52.392;9.758;2023-08-08T05:49:38;5.50;;;3.17;;
60464;SDS011;46314;52.392;9.758;2023-08-08T05:52:06;5.32;;;3.08;;
60464;SDS011;46314;52.392;9.758;2023-08-08T05:54:32;5.55;;;3.65;;
60464;SDS011;46314;52.392;9.758;2023-08-08T05:57:00;6.10;;;3.50;;
60464;SDS011;46314;52.392;9.758;2023-08-08T05:59:27;4.90;;;3.45;;
60464;SDS011;46314;52.392;9.758;2023-08-08T06:01:54;5.07;;;3.70;;
60464;SDS011;46314;52.392;9.758;2023-08-08T06:04:21;6.30;;;3.53;;
60464;SDS011;46314;52.392;9.758;2023-08-08T06:06:47;5.93;;;3.60;;
60464;SDS011;46314;52.392;9.758;2023-08-08T06:09:14;6.78;;;3.03;;
60464;SDS011;46314;52.392;9.758;2023-08-08T06:11:40;6.90;;;3.70;;
60464;SDS011;46314;52.392;9.758;2023-08-08T06:14:07;6.43;;;3.83;;
60464;SDS011;46314;52.392;9.758;2023-08-08T06:16:35;5.63;;;3.65;;
60464;SDS011;46314;52.392;9.758;2023-08-08T06:19:01;7.22;;;3.60;;
60464;SDS011;46314;52.392;9.758;2023-08-08T06:21:28;6.35;;;3.90;;
60464;SDS011;46314;52.392;9.758;2023-08-08T06:23:54;5.20;;;3.63;;
60464;SDS011;46314;52.392;9.758;2023-08-08T06:26:21;6.07;;;3.60;;
60464;SDS011;46314;52.392;9.758;2023-08-08T06:28:47;8.40;;;3.85;;
60464;SDS011;46314;52.392;9.758;2023-08-08T06:31:14;5.35;;;3.60;;
60464;SDS011;46314;52.392;9.758;2023-08-08T06:33:42;5.93;;;3.70;;
60464;SDS011;46314;52.392;9.758;2023-08-08T06:36:09;7.05;;;3.25;;
60464;SDS011;46314;52.392;9.758;2023-08-08T06:38:35;4.60;;;2.90;;
60464;SDS011;46314;52.392;9.758;2023-08-08T06:41:02;6.25;;;3.30;;
60464;SDS011;46314;52.392;9.758;2023-08-08T06:43:29;5.75;;;3.60;;
60464;SDS011;46314;52.392;9.758;2023-08-08T06:45:55;6.47;;;4.13;;
60464;SDS011;46314;52.392;9.758;2023-08-08T06:48:22;10.05;;;4.38;;
60464;SDS011;46314;52.392;9.758;2023-08-08T06:50:50;8.43;;;3.83;;
60464;SDS011;46314;52.392;9.758;2023-08-08T06:53:17;5.57;;;3.58;;
60464;SDS011;46314;52.392;9.758;2023-08-08T06:55:43;6.38;;;4.40;;
60464;SDS011;46314;52.392;9.758;2023-08-08T06:58:10;4.82;;;3.22;;
60464;SDS011;46314;52.392;9.758;2023-08-08T07:00:36;7.40;;;3.67;;
60464;SDS011;46314;52.392;9.758;2023-08-08T07:03:03;5.10;;;3.88;;
60464;SDS011;46314;52.392;9.758;2023-08-08T07:05:30;8.63;;;3.95;;
60464;SDS011;46314;52.392;9.758;2023-08-08T07:07:58;5.75;;;3.15;;
60464;SDS011;46314;52.392;9.758;2023-08-08T07:10:24;7.13;;;3.95;;
60464;SDS011;46314;52.392;9.758;2023-08-08T07:12:51;5.93;;;2.95;;
60464;SDS011;46314;52.392;9.758;2023-08-08T07:15:19;6.75;;;3.38;;
60464;SDS011;46314;52.392;9.758;2023-08-08T07:17:47;4.25;;;2.83;;
60464;SDS011;46314;52.392;9.758;2023-08-08T07:20:13;5.72;;;3.17;;
60464;SDS011;46314;52.392;9.758;2023-08-08T07:22:40;5.65;;;3.13;;
60464;SDS011;46314;52.392;9.758;2023-08-08T07:25:08;6.45;;;3.25;;
60464;SDS011;46314;52.392;9.758;2023-08-08T07:27:35;4.93;;;2.95;;
60464;SDS011;46314;52.392;9.758;2023-08-08T07:30:01;6.75;;;3.85;;
60464;SDS011;46314;52.392;9.758;2023-08-08T07:32:28;5.53;;;2.95;;
60464;SDS011;46314;52.392;9.758;2023-08-08T07:34:58;5.07;;;2.67;;
60464;SDS011;46314;52.392;9.758;2023-08-08T07:37:24;8.52;;;2.90;;
60464;SDS011;46314;52.392;9.758;2023-08-08T07:39:51;5.07;;;2.67;;
60464;SDS011;46314;52.392;9.758;2023-08-08T07:42:18;7.28;;;2.75;;
60464;SDS011;46314;52.392;9.758;2023-08-08T07:44:45;4.82;;;3.03;;
60464;SDS011;46314;52.392;9.758;2023-08-08T07:47:11;5.57;;;2.97;;
60464;SDS011;46314;52.392;9.758;2023-08-08T07:49:41;5.15;;;2.70;;
60464;SDS011;46314;52.392;9.758;2023-08-08T07:52:07;4.47;;;2.85;;
60464;SDS011;46314;52.392;9.758;2023-08-08T07:54:34;6.25;;;3.13;;
60464;SDS011;46314;52.392;9.758;2023-08-08T07:57:00;7.47;;;2.35;;
60464;SDS011;46314;52.392;9.758;2023-08-08T07:59:28;6.93;;;2.92;;
60464;SDS011;46314;52.392;9.758;2023-08-08T08:01:55;3.83;;;2.58;;
60464;SDS011;46314;52.392;9.758;2023-08-08T08:04:21;7.47;;;2.22;;
60464;SDS011;46314;52.392;9.758;2023-08-08T08:06:48;4.15;;;2.40;;
60464;SDS011;46314;52.392;9.758;2023-08-08T08:09:14;6.78;;;2.55;;
60464;SDS011;46314;52.392;9.758;2023-08-08T08:11:41;7.20;;;2.47;;
60464;SDS011;46314;52.392;9.758;2023-08-08T08:14:07;5.68;;;2.67;;
60464;SDS011;46314;52.392;9.758;2023-08-08T08:16:35;7.05;;;3.00;;
60464;SDS011;46314;52.392;9.758;2023-08-08T08:19:02;4.80;;;2.03;;
60464;SDS011;46314;52.392;9.758;2023-08-08T08:21:29;7.07;;;2.35;;
60464;SDS011;46314;52.392;9.758;2023-08-08T08:23:55;6.07;;;2.30;;
60464;SDS011;46314;52.392;9.758;2023-08-08T08:26:21;5.97;;;2.35;;
60464;SDS011;46314;52.392;9.758;2023-08-08T08:28:48;4.93;;;2.47;;
60464;SDS011;46314;52.392;9.758;2023-08-08T08:31:14;4.93;;;2.08;;
60464;SDS011;46314;52.392;9.758;2023-08-08T08:33:42;4.95;;;2.85;;
60464;SDS011;46314;52.392;9.758;2023-08-08T08:36:09;9.70;;;2.20;;
60464;SDS011;46314;52.392;9.758;2023-08-08T08:38:37;5.63;;;2.35;;
60464;SDS011;46314;52.392;9.758;2023-08-08T08:41:03;5.78;;;1.90;;
60464;SDS011;46314;52.392;9.758;2023-08-08T08:43:30;5.25;;;2.30;;
60464;SDS011;46314;52.392;9.758;2023-08-08T08:45:57;5.82;;;2.35;;
60464;SDS011;46314;52.392;9.758;2023-08-08T08:48:26;3.63;;;2.25;;
60464;SDS011;46314;52.392;9.758;2023-08-08T08:50:55;4.65;;;1.98;;
60464;SDS011;46314;52.392;9.758;2023-08-08T08:53:21;3.67;;;2.17;;
60464;SDS011;46314;52.392;9.758;2023-08-08T08:55:49;5.85;;;2.42;;
60464;SDS011;46314;52.392;9.758;2023-08-08T08:58:17;6.85;;;2.25;;
60464;SDS011;46314;52.392;9.758;2023-08-08T09:00:44;5.97;;;1.73;;
60464;SDS011;46314;52.392;9.758;2023-08-08T09:03:10;5.18;;;2.08;;
60464;SDS011;46314;52.392;9.758;2023-08-08T09:05:38;5.72;;;2.75;;
60464;SDS011;46314;52.392;9.758;2023-08-08T09:08:07;2.33;;;2.10;;
60464;SDS011;46314;52.392;9.758;2023-08-08T09:10:33;4.15;;;1.85;;
60464;SDS011;46314;52.392;9.758;2023-08-08T09:13:00;3.38;;;1.95;;
60464;SDS011;46314;52.392;9.758;2023-08-08T09:15:29;5.90;;;2.40;;
60464;SDS011;46314;52.392;9.758;2023-08-08T09:17:56;5.38;;;2.70;;
60464;SDS011;46314;52.392;9.758;2023-08-08T09:20:24;5.10;;;2.10;;
60464;SDS011;46314;52.392;9.758;2023-08-08T09:22:52;4.32;;;2.40;;
60464;SDS011;46314;52.392;9.758;2023-08-08T09:25:20;9.90;;;2.85;;
60464;SDS011;46314;52.392;9.758;2023-08-08T09:27:46;5.25;;;2.30;;
60464;SDS011;46314;52.392;9.758;2023-08-08T09:30:13;4.53;;;2.50;;
60464;SDS011;46314;52.392;9.758;2023-08-08T09:32:42;6.70;;;2.75;;
60464;SDS011;46314;52.392;9.758;2023-08-08T09:35:09;9.43;;;2.45;;
60464;SDS011;46314;52.392;9.758;2023-08-08T09:37:36;5.45;;;2.28;;
60464;SDS011;46314;52.392;9.758;2023-08-08T09:40:04;6.10;;;2.50;;
60464;SDS011;46314;52.392;9.758;2023-08-08T09:42:33;4.43;;;2.78;;
60464;SDS011;46314;52.392;9.758;2023-08-08T09:45:00;5.70;;;2.55;;
60464;SDS011;46314;52.392;9.758;2023-08-08T09:47:27;5.88;;;2.50;;
60464;SDS011;46314;52.392;9.758;2023-08-08T09:49:54;6.28;;;2.55;;
60464;SDS011;46314;52.392;9.758;2023-08-08T09:52:21;4.80;;;2.35;;
60464;SDS011;46314;52.392;9.758;2023-08-08T09:54:47;4.15;;;2.40;;
60464;SDS011;46314;52.392;9.758;2023-08-08T09:57:15;3.55;;;2.38;;
60464;SDS011;46314;52.392;9.758;2023-08-08T09:59:44;4.40;;;2.95;;
60464;SDS011;46314;52.392;9.758;2023-08-08T10:02:13;7.47;;;2.47;;
60464;SDS011;46314;52.392;9.758;2023-08-08T10:04:40;4.55;;;2.28;;
60464;SDS011;46314;52.392;9.758;2023-08-08T10:07:07;4.55;;;2.60;;
60464;SDS011;46314;52.392;9.758;2023-08-08T10:09:34;6.40;;;2.50;;
60464;SDS011;46314;52.392;9.758;2023-08-08T10:12:00;6.65;;;3.40;;
60464;SDS011;46314;52.392;9.758;2023-08-08T10:14:28;6.28;;;3.40;;
60464;SDS011;46314;52.392;9.758;2023-08-08T10:16:56;6.88;;;2.53;;
60464;SDS011;46314;52.392;9.758;2023-08-08T10:19:23;5.05;;;2.40;;
60464;SDS011;46314;52.392;9.758;2023-08-08T10:21:55;5.00;;;2.50;;
60464;SDS011;46314;52.392;9.758;2023-08-08T10:24:23;6.53;;;2.50;;
60464;SDS011;46314;52.392;9.758;2023-08-08T10:26:52;5.03;;;2.63;;
60464;SDS011;46314;52.392;9.758;2023-08-08T10:29:20;4.63;;;2.65;;
60464;SDS011;46314;52.392;9.758;2023-08-08T10:31:53;5.07;;;2.45;;
60464;SDS011;46314;52.392;9.758;2023-08-08T10:34:24;4.22;;;2.25;;
60464;SDS011;46314;52.392;9.758;2023-08-08T10:39:20;7.28;;;2.17;;
60464;SDS011;46314;52.392;9.758;2023-08-08T10:41:47;4.70;;;2.50;;
60464;SDS011;46314;52.392;9.758;2023-08-08T10:44:24;5.65;;;2.47;;
60464;SDS011;46314;52.392;9.758;2023-08-08T10:46:51;4.40;;;2.38;;
60464;SDS011;46314;52.392;9.758;2023-08-08T10:49:18;4.88;;;2.63;;
60464;SDS011;46314;52.392;9.758;2023-08-08T10:51:48;6.97;;;2.50;;
60464;SDS011;46314;52.392;9.758;2023-08-08T10:54:17;6.10;;;2.45;;
60464;SDS011;46314;52.392;9.758;2023-08-08T10:56:49;7.80;;;2.72;;
60464;SDS011;46314;52.392;9.758;2023-08-08T10:59:17;4.43;;;1.90;;
60464;SDS011;46314;52.392;9.758;2023-08-08T11:01:47;3.13;;;2.13;;
60464;SDS011;46314;52.392;9.758;2023-08-08T11:04:16;3.22;;;2.00;;
60464;SDS011;46314;52.392;9.758;2023-08-08T11:06:45;5.60;;;2.00;;
60464;SDS011;46314;52.392;9.758;2023-08-08T11:09:13;2.63;;;1.70;;
60464;SDS011;46314;52.392;9.758;2023-08-08T11:11:40;4.50;;;2.20;;
60464;SDS011;46314;52.392;9.758;2023-08-08T11:14:09;4.78;;;2.20;;
60464;SDS011;46314;52.392;9.758;2023-08-08T11:16:36;5.10;;;1.75;;
60464;SDS011;46314;52.392;9.758;2023-08-08T11:19:03;3.83;;;2.20;;
60464;SDS011;46314;52.392;9.758;2023-08-08T11:21:32;3.17;;;1.83;;
60464;SDS011;46314;52.392;9.758;2023-08-08T11:24:01;3.97;;;1.60;;
60464;SDS011;46314;52.392;9.758;2023-08-08T11:26:27;4.55;;;1.40;;
60464;SDS011;46314;52.392;9.758;2023-08-08T11:28:54;4.32;;;1.55;;
60464;SDS011;46314;52.392;9.758;2023-08-08T11:31:20;2.65;;;1.52;;
60464;SDS011;46314;52.392;9.758;2023-08-08T11:33:47;4.10;;;1.83;;
60464;SDS011;46314;52.392;9.758;2023-08-08T11:36:14;4.50;;;1.75;;
60464;SDS011;46314;52.392;9.758;2023-08-08T11:38:41;3.95;;;2.20;;
60464;SDS011;46314;52.392;9.758;2023-08-08T11:41:09;4.18;;;1.70;;
60464;SDS011;46314;52.392;9.758;2023-08-08T11:43:36;2.70;;;1.65;;
60464;SDS011;46314;52.392;9.758;2023-08-08T11:46:03;2.60;;;2.00;;
60464;SDS011;46314;52.392;9.758;2023-08-08T11:48:32;3.38;;;1.80;;
60464;SDS011;46314;52.392;9.758;2023-08-08T11:50:58;3.70;;;1.38;;
60464;SDS011;46314;52.392;9.758;2023-08-08T11:53:25;4.72;;;1.63;;
60464;SDS011;46314;52.392;9.758;2023-08-08T11:55:51;5.35;;;2.00;;
60464;SDS011;46314;52.392;9.758;2023-08-08T11:58:19;6.50;;;2.58;;
60464;SDS011;46314;52.392;9.758;2023-08-08T12:00:46;4.38;;;2.45;;
60464;SDS011;46314;52.392;9.758;2023-08-08T12:03:12;3.53;;;1.85;;
60464;SDS011;46314;52.392;9.758;2023-08-08T12:05:39;3.50;;;2.05;;
60464;SDS011;46314;52.392;9.758;2023-08-08T12:08:06;2.70;;;2.15;;
60464;SDS011;46314;52.392;9.758;2023-08-08T12:10:33;2.83;;;1.90;;
60464;SDS011;46314;52.392;9.758;2023-08-08T12:12:59;4.00;;;1.90;;
60464;SDS011;46314;52.392;9.758;2023-08-08T12:15:31;5.32;;;2.00;;
60464;SDS011;46314;52.392;9.758;2023-08-08T12:17:58;5.80;;;2.20;;
60464;SDS011;46314;52.392;9.758;2023-08-08T12:20:26;6.95;;;2.22;;
60464;SDS011;46314;52.392;9.758;2023-08-08T12:22:54;3.10;;;1.70;;
60464;SDS011;46314;52.392;9.758;2023-08-08T12:25:20;5.07;;;2.28;;
60464;SDS011;46314;52.392;9.758;2023-08-08T12:27:47;3.60;;;1.55;;
60464;SDS011;46314;52.392;9.758;2023-08-08T12:30:16;5.10;;;1.80;;
60464;SDS011;46314;52.392;9.758;2023-08-08T12:32:45;5.13;;;1.92;;
60464;SDS011;46314;52.392;9.758;2023-08-08T12:35:12;8.20;;;2.08;;
60464;SDS011;46314;52.392;9.758;2023-08-08T12:37:38;3.78;;;2.08;;
60464;SDS011;46314;52.392;9.758;2023-08-08T12:40:05;4.38;;;1.80;;
60464;SDS011;46314;52.392;9.758;2023-08-08T12:42:33;4.47;;;1.48;;
60464;SDS011;46314;52.392;9.758;2023-08-08T12:45:00;3.75;;;1.67;;
60464;SDS011;46314;52.392;9.758;2023-08-08T12:47:27;3.42;;;1.58;;
60464;SDS011;46314;52.392;9.758;2023-08-08T12:49:54;3.95;;;1.63;;
60464;SDS011;46314;52.392;9.758;2023-08-08T12:52:21;3.15;;;1.42;;
60464;SDS011;46314;52.392;9.758;2023-08-08T12:54:50;3.92;;;1.88;;
60464;SDS011;46314;52.392;9.758;2023-08-08T12:57:16;4.22;;;1.40;;
60464;SDS011;46314;52.392;9.758;2023-08-08T12:59:43;3.20;;;2.00;;
60464;SDS011;46314;52.392;9.758;2023-08-08T13:02:09;5.18;;;1.67;;
60464;SDS011;46314;52.392;9.758;2023-08-08T13:04:37;3.47;;;1.63;;
60464;SDS011;46314;52.392;9.758;2023-08-08T13:07:05;6.03;;;1.90;;
60464;SDS011;46314;52.392;9.758;2023-08-08T13:09:31;4.90;;;1.75;;
60464;SDS011;46314;52.392;9.758;2023-08-08T13:11:58;3.92;;;1.70;;
60464;SDS011;46314;52.392;9.758;2023-08-08T13:14:25;3.92;;;1.40;;
60464;SDS011;46314;52.392;9.758;2023-08-08T13:16:51;3.08;;;1.70;;
60464;SDS011;46314;52.392;9.758;2023-08-08T13:19:19;4.55;;;1.40;;
60464;SDS011;46314;52.392;9.758;2023-08-08T13:21:46;3.25;;;1.35;;
60464;SDS011;46314;52.392;9.758;2023-08-08T13:24:13;3.05;;;1.60;;
60464;SDS011;46314;52.392;9.758;2023-08-08T13:26:40;2.22;;;1.52;;
60464;SDS011;46314;52.392;9.758;2023-08-08T13:29:07;2.33;;;1.30;;
60464;SDS011;46314;52.392;9.758;2023-08-08T13:31:33;4.00;;;1.35;;
60464;SDS011;46314;52.392;9.758;2023-08-08T13:34:00;4.00;;;1.70;;
60464;SDS011;46314;52.392;9.758;2023-08-08T13:36:26;2.45;;;1.20;;
60464;SDS011;46314;52.392;9.758;2023-08-08T13:38:53;2.90;;;1.63;;
60464;SDS011;46314;52.392;9.758;2023-08-08T13:41:22;5.20;;;1.77;;
60464;SDS011;46314;52.392;9.758;2023-08-08T13:43:49;2.22;;;1.20;;
60464;SDS011;46314;52.392;9.758;2023-08-08T13:46:15;3.53;;;1.35;;
60464;SDS011;46314;52.392;9.758;2023-08-08T13:48:42;3.40;;;1.35;;
60464;SDS011;46314;52.392;9.758;2023-08-08T13:51:08;3.05;;;1.40;;
60464;SDS011;46314;52.392;9.758;2023-08-08T13:53:35;4.45;;;1.33;;
60464;SDS011;46314;52.392;9.758;2023-08-08T13:56:01;3.92;;;1.83;;
60464;SDS011;46314;52.392;9.758;2023-08-08T13:58:29;5.05;;;1.95;;
60464;SDS011;46314;52.392;9.758;2023-08-08T14:00:56;1.48;;;1.25;;
60464;SDS011;46314;52.392;9.758;2023-08-08T14:03:22;3.00;;;1.60;;
60464;SDS011;46314;52.392;9.758;2023-08-08T14:05:49;5.25;;;2.20;;
60464;SDS011;46314;52.392;9.758;2023-08-08T14:08:16;4.60;;;1.98;;
60464;SDS011;46314;52.392;9.758;2023-08-08T14:10:42;2.13;;;1.23;;
60464;SDS011;46314;52.392;9.758;2023-08-08T14:13:09;3.78;;;1.80;;
60464;SDS011;46314;52.392;9.758;2023-08-08T14:15:37;3.65;;;1.77;;
60464;SDS011;46314;52.392;9.758;2023-08-08T14:18:03;4.00;;;2.03;;
60464;SDS011;46314;52.392;9.758;2023-08-08T14:20:30;2.78;;;1.63;;
60464;SDS011;46314;52.392;9.758;2023-08-08T14:22:56;5.00;;;2.08;;
60464;SDS011;46314;52.392;9.758;2023-08-08T14:25:23;4.35;;;2.00;;
60464;SDS011;46314;52.392;9.758;2023-08-08T14:27:49;3.33;;;1.88;;
60464;SDS011;46314;52.392;9.758;2023-08-08T14:30:16;3.53;;;1.67;;
60464;SDS011;46314;52.392;9.758;2023-08-08T14:32:44;4.03;;;1.88;;
60464;SDS011;46314;52.392;9.758;2023-08-08T14:35:10;5.82;;;1.67;;
60464;SDS011;46314;52.392;9.758;2023-08-08T14:37:37;2.90;;;1.90;;
60464;SDS011;46314;52.392;9.758;2023-08-08T14:40:05;2.67;;;1.50;;
60464;SDS011;46314;52.392;9.758;2023-08-08T14:42:32;3.10;;;1.52;;
60464;SDS011;46314;52.392;9.758;2023-08-08T14:44:59;3.28;;;1.30;;
60464;SDS011;46314;52.392;9.758;2023-08-08T14:47:25;4.30;;;1.55;;
60464;SDS011;46314;52.392;9.758;2023-08-08T14:49:53;1.95;;;1.10;;